sensor_id;sensor_type;location;lat;lon;timestamp;pressure;altitude;pressure_sealevel;temperature;humidity
76156;BME280;64906;51.290;7.348;2023-06-22T00:00:49;98966.91;;;26.89;44.14
76156;BME280;64906;51.290;7.348;2023-06-22T00:03:15;98971.13;;;26.87;44.22
76156;BME280;64906;51.290;7.348;2023-06-22T00:05:40;98961.22;;;26.86;44.25
76156;BME280;64906;51.290;7.348;2023-06-22T00:08:06;98948.16;;;26.86;44.11
76156;BME280;64906;51.290;7.348;2023-06-22T00:10:31;98958.72;;;26.93;44.22
76156;BME280;64906;51.290;7.348;2023-06-22T00:12:56;98959.56;;;26.85;44.30
76156;BME280;64906;51.290;7.348;2023-06-22T00:15:22;98954.69;;;26.82;44.14
76156;BME280;64906;51.290;7.348;2023-06-22T00:17:49;98965.59;;;26.87;44.23
76156;BME280;64906;51.290;7.348;2023-06-22T00:20:14;98962.81;;;26.87;44.30
76156;BME280;64906;51.290;7.348;2023-06-22T00:22:39;98968.22;;;26.83;44.42
76156;BME280;64906;51.290;7.348;2023-06-22T00:25:06;98960.22;;;26.82;44.11
76156;BME280;64906;51.290;7.348;2023-06-22T00:27:32;98958.47;;;26.77;44.26
76156;BME280;64906;51.290;7.348;2023-06-22T00:29:57;98962.34;;;26.85;44.22
76156;BME280;64906;51.290;7.348;2023-06-22T00:32:22;98958.63;;;26.81;44.41
76156;BME280;64906;51.290;7.348;2023-06-22T00:34:47;98962.34;;;26.85;44.34
76156;BME280;64906;51.290;7.348;2023-06-22T00:37:13;98962.81;;;26.87;44.12
76156;BME280;64906;51.290;7.348;2023-06-22T00:39:38;98961.53;;;26.84;44.09
76156;BME280;64906;51.290;7.348;2023-06-22T00:42:04;98960.72;;;26.84;44.54
76156;BME280;64906;51.290;7.348;2023-06-22T00:44:29;98960.06;;;26.78;44.38
76156;BME280;64906;51.290;7.348;2023-06-22T00:46:54;98956.19;;;26.79;44.17
76156;BME280;64906;51.290;7.348;2023-06-22T00:49:20;98957.13;;;26.83;44.16
76156;BME280;64906;51.290;7.348;2023-06-22T00:51:45;98959.75;;;26.80;44.21
76156;BME280;64906;51.290;7.348;2023-06-22T00:54:13;98967.59;;;26.78;44.47
76156;BME280;64906;51.290;7.348;2023-06-22T00:56:40;98956.97;;;26.80;44.36
76156;BME280;64906;51.290;7.348;2023-06-22T00:59:06;98964.34;;;26.76;44.33
76156;BME280;64906;51.290;7.348;2023-06-22T01:01:31;98960.91;;;26.79;44.39
76156;BME280;64906;51.290;7.348;2023-06-22T01:03:57;98960.06;;;26.78;44.37
76156;BME280;64906;51.290;7.348;2023-06-22T01:06:29;98954.53;;;26.78;44.37
76156;BME280;64906;51.290;7.348;2023-06-22T01:09:15;98953.75;;;26.78;44.29
76156;BME280;64906;51.290;7.348;2023-06-22T01:11:53;98949.97;;;26.82;44.29
76156;BME280;64906;51.290;7.348;2023-06-22T01:14:28;98962.84;;;26.78;44.53
76156;BME280;64906;51.290;7.348;2023-06-22T01:16:56;98954.03;;;26.76;44.42
76156;BME280;64906;51.290;7.348;2023-06-22T01:22:07;98953.75;;;26.78;44.49
76156;BME280;64906;51.290;7.348;2023-06-22T01:24:55;98955.19;;;26.75;44.32
76156;BME280;64906;51.290;7.348;2023-06-22T01:30:11;98953.25;;;26.76;44.26
76156;BME280;64906;51.290;7.348;2023-06-22T01:32:40;98953.59;;;26.74;44.49
76156;BME280;64906;51.290;7.348;2023-06-22T01:35:07;98946.41;;;26.73;44.32
76156;BME280;64906;51.290;7.348;2023-06-22T01:37:33;98941.69;;;26.74;44.54
76156;BME280;64906;51.290;7.348;2023-06-22T01:40:00;98938.59;;;26.75;44.38
76156;BME280;64906;51.290;7.348;2023-06-22T01:42:25;98936.97;;;26.74;44.32
76156;BME280;64906;51.290;7.348;2023-06-22T01:44:52;98933.03;;;26.75;44.55
76156;BME280;64906;51.290;7.348;2023-06-22T01:47:18;98935.81;;;26.75;44.40
76156;BME280;64906;51.290;7.348;2023-06-22T01:49:44;98945.44;;;26.69;44.54
76156;BME280;64906;51.290;7.348;2023-06-22T01:52:11;98933.72;;;26.72;44.42
76156;BME280;64906;51.290;7.348;2023-06-22T01:54:37;98929.31;;;26.71;44.46
76156;BME280;64906;51.290;7.348;2023-06-22T01:57:03;98936.16;;;26.74;44.20
76156;BME280;64906;51.290;7.348;2023-06-22T01:59:39;98935.31;;;26.73;44.38
76156;BME280;64906;51.290;7.348;2023-06-22T02:02:09;98930.94;;;26.72;44.32
76156;BME280;64906;51.290;7.348;2023-06-22T02:04:57;98939.91;;;26.69;44.44
76156;BME280;64906;51.290;7.348;2023-06-22T02:07:28;98933.72;;;26.72;44.44
76156;BME280;64906;51.290;7.348;2023-06-22T02:09:54;98930.44;;;26.70;44.46
76156;BME280;64906;51.290;7.348;2023-06-22T02:12:23;98923.44;;;26.73;44.35
76156;BME280;64906;51.290;7.348;2023-06-22T02:14:51;98931.88;;;26.76;44.26
76156;BME280;64906;51.290;7.348;2023-06-22T02:17:17;98927.19;;;26.68;44.49
76156;BME280;64906;51.290;7.348;2023-06-22T02:19:47;98927.19;;;26.68;44.29
76156;BME280;64906;51.290;7.348;2023-06-22T02:22:12;98930.28;;;26.67;44.62
76156;BME280;64906;51.290;7.348;2023-06-22T02:24:38;98923.44;;;26.73;44.55
76156;BME280;64906;51.290;7.348;2023-06-22T02:27:04;98920.03;;;26.67;44.56
76156;BME280;64906;51.290;7.348;2023-06-22T02:29:31;98924.41;;;26.68;44.36
76156;BME280;64906;51.290;7.348;2023-06-22T02:31:57;98919.22;;;26.67;44.42
76156;BME280;64906;51.290;7.348;2023-06-22T02:34:22;98918.41;;;26.66;44.70
76156;BME280;64906;51.290;7.348;2023-06-22T02:36:48;98916.59;;;26.62;44.72
76156;BME280;64906;51.290;7.348;2023-06-22T02:39:22;98913.19;;;26.65;44.83
76156;BME280;64906;51.290;7.348;2023-06-22T02:41:52;98914.16;;;26.60;44.56
76156;BME280;64906;51.290;7.348;2023-06-22T02:44:18;98917.41;;;26.62;44.59
76156;BME280;64906;51.290;7.348;2023-06-22T02:46:44;98913.19;;;26.65;44.56
76156;BME280;64906;51.290;7.348;2023-06-22T02:49:10;98911.38;;;26.60;44.52
76156;BME280;64906;51.290;7.348;2023-06-22T02:51:38;98902.63;;;26.58;44.60
76156;BME280;64906;51.290;7.348;2023-06-22T02:54:04;98904.22;;;26.59;44.74
76156;BME280;64906;51.290;7.348;2023-06-22T02:56:29;98904.38;;;26.63;44.56
76156;BME280;64906;51.290;7.348;2023-06-22T02:58:55;98903.75;;;26.57;44.71
76156;BME280;64906;51.290;7.348;2023-06-22T03:01:25;98904.56;;;26.58;44.63
76156;BME280;64906;51.290;7.348;2023-06-22T03:03:52;98906.50;;;26.57;44.74
76156;BME280;64906;51.290;7.348;2023-06-22T03:06:18;98900.78;;;26.62;44.54
76156;BME280;64906;51.290;7.348;2023-06-22T03:08:49;98893.31;;;26.63;44.70
76156;BME280;64906;51.290;7.348;2023-06-22T03:11:15;98891.84;;;26.65;44.46
76156;BME280;64906;51.290;7.348;2023-06-22T03:13:40;98887.28;;;26.61;44.75
76156;BME280;64906;51.290;7.348;2023-06-22T03:16:05;98883.34;;;26.62;44.70
76156;BME280;64906;51.290;7.348;2023-06-22T03:18:31;98882.75;;;26.56;44.53
76156;BME280;64906;51.290;7.348;2023-06-22T03:20:56;98881.59;;;26.57;44.74
76156;BME280;64906;51.290;7.348;2023-06-22T03:23:21;98882.25;;;26.54;44.71
76156;BME280;64906;51.290;7.348;2023-06-22T03:25:47;98879.47;;;26.54;44.67
76156;BME280;64906;51.290;7.348;2023-06-22T03:28:12;98880.75;;;26.57;44.45
76156;BME280;64906;51.290;7.348;2023-06-22T03:30:37;98874.44;;;26.56;44.66
76156;BME280;64906;51.290;7.348;2023-06-22T03:33:02;98879.31;;;26.59;44.66
76156;BME280;64906;51.290;7.348;2023-06-22T03:35:28;98876.38;;;26.56;44.65
76156;BME280;64906;51.290;7.348;2023-06-22T03:37:53;98873.28;;;26.57;44.56
76156;BME280;64906;51.290;7.348;2023-06-22T03:40:18;98876.06;;;26.57;44.76
76156;BME280;64906;51.290;7.348;2023-06-22T03:42:45;98879.81;;;26.53;44.65
76156;BME280;64906;51.290;7.348;2023-06-22T03:45:10;98884.19;;;26.54;44.67
76156;BME280;64906;51.290;7.348;2023-06-22T03:47:36;98883.88;;;26.55;44.77
76156;BME280;64906;51.290;7.348;2023-06-22T03:50:01;98878.31;;;26.55;44.77
76156;BME280;64906;51.290;7.348;2023-06-22T03:52:28;98880.13;;;26.60;44.63
76156;BME280;64906;51.290;7.348;2023-06-22T03:54:53;98883.69;;;26.60;44.54
76156;BME280;64906;51.290;7.348;2023-06-22T03:57:19;98875.56;;;26.55;44.63
76156;BME280;64906;51.290;7.348;2023-06-22T03:59:44;98869.69;;;26.57;44.62
76156;BME280;64906;51.290;7.348;2023-06-22T04:02:09;98868.75;;;26.53;44.75
76156;BME280;64906;51.290;7.348;2023-06-22T04:04:35;98865.63;;;26.54;44.65
76156;BME280;64906;51.290;7.348;2023-06-22T04:07:00;98869.69;;;26.57;44.81
76156;BME280;64906;51.290;7.348;2023-06-22T04:09:25;98858.94;;;26.55;44.80
76156;BME280;64906;51.290;7.348;2023-06-22T04:11:51;98861.09;;;26.58;44.50
76156;BME280;64906;51.290;7.348;2023-06-22T04:14:17;98859.44;;;26.57;44.43
76156;BME280;64906;51.290;7.348;2023-06-22T04:16:42;98862.69;;;26.59;44.54
76156;BME280;64906;51.290;7.348;2023-06-22T04:19:07;98865.78;;;26.58;44.74
76156;BME280;64906;51.290;7.348;2023-06-22T04:21:38;98870.66;;;26.61;44.44
76156;BME280;64906;51.290;7.348;2023-06-22T04:24:03;98872.28;;;26.62;44.32
76156;BME280;64906;51.290;7.348;2023-06-22T04:26:29;98872.94;;;26.59;44.71
76156;BME280;64906;51.290;7.348;2023-06-22T04:28:54;98879.63;;;26.58;44.60
76156;BME280;64906;51.290;7.348;2023-06-22T04:31:20;98866.91;;;26.57;44.63
76156;BME280;64906;51.290;7.348;2023-06-22T04:33:46;98866.13;;;26.56;44.37
76156;BME280;64906;51.290;7.348;2023-06-22T04:36:11;98875.72;;;26.59;44.36
76156;BME280;64906;51.290;7.348;2023-06-22T04:38:40;98872.16;;;26.58;44.66
76156;BME280;64906;51.290;7.348;2023-06-22T04:41:05;98859.94;;;26.59;44.42
76156;BME280;64906;51.290;7.348;2023-06-22T04:43:31;98858.78;;;26.60;44.45
76156;BME280;64906;51.290;7.348;2023-06-22T04:45:57;98859.94;;;26.59;44.33
76156;BME280;64906;51.290;7.348;2023-06-22T04:48:28;98860.75;;;26.60;44.58
76156;BME280;64906;51.290;7.348;2023-06-22T04:50:57;98857.16;;;26.59;44.65
76156;BME280;64906;51.290;7.348;2023-06-22T04:53:28;98859.94;;;26.59;44.49
76156;BME280;64906;51.290;7.348;2023-06-22T04:55:55;98860.75;;;26.60;44.44
76156;BME280;64906;51.290;7.348;2023-06-22T04:58:20;98856.81;;;26.61;44.32
76156;BME280;64906;51.290;7.348;2023-06-22T05:00:46;98865.13;;;26.61;44.51
76156;BME280;64906;51.290;7.348;2023-06-22T05:03:12;98862.38;;;26.61;44.55
76156;BME280;64906;51.290;7.348;2023-06-22T05:05:37;98856.00;;;26.60;44.61
76156;BME280;64906;51.290;7.348;2023-06-22T05:08:03;98861.88;;;26.67;44.20
76156;BME280;64906;51.290;7.348;2023-06-22T05:10:32;98870.34;;;26.62;44.46
76156;BME280;64906;51.290;7.348;2023-06-22T05:12:57;98868.38;;;26.63;44.48
76156;BME280;64906;51.290;7.348;2023-06-22T05:15:22;98869.03;;;26.68;44.54
76156;BME280;64906;51.290;7.348;2023-06-22T05:17:51;98864.47;;;26.64;44.49
76156;BME280;64906;51.290;7.348;2023-06-22T05:20:17;98875.53;;;26.64;44.27
76156;BME280;64906;51.290;7.348;2023-06-22T05:22:43;98875.72;;;26.67;44.48
76156;BME280;64906;51.290;7.348;2023-06-22T05:25:10;98871.66;;;26.65;44.50
76156;BME280;64906;51.290;7.348;2023-06-22T05:27:36;98869.69;;;26.65;44.46
76156;BME280;64906;51.290;7.348;2023-06-22T05:30:06;98868.69;;;26.70;44.31
76156;BME280;64906;51.290;7.348;2023-06-22T05:32:32;98864.81;;;26.71;44.25
76156;BME280;64906;51.290;7.348;2023-06-22T05:34:57;98858.28;;;26.67;44.30
76156;BME280;64906;51.290;7.348;2023-06-22T05:37:22;98857.94;;;26.68;44.24
76156;BME280;64906;51.290;7.348;2023-06-22T05:39:48;98862.22;;;26.66;44.37
76156;BME280;64906;51.290;7.348;2023-06-22T05:42:13;98857.66;;;26.61;44.68
76156;BME280;64906;51.290;7.348;2023-06-22T05:44:38;98857.69;;;26.44;45.03
76156;BME280;64906;51.290;7.348;2023-06-22T05:47:05;98867.16;;;26.43;45.01
76156;BME280;64906;51.290;7.348;2023-06-22T05:49:31;98871.84;;;26.42;45.09
76156;BME280;64906;51.290;7.348;2023-06-22T05:51:58;98880.19;;;26.34;45.88
76156;BME280;64906;51.290;7.348;2023-06-22T05:54:24;98885.72;;;26.34;45.97
76156;BME280;64906;51.290;7.348;2023-06-22T05:56:50;98883.94;;;26.38;45.99
76156;BME280;64906;51.290;7.348;2023-06-22T05:59:15;98877.25;;;26.39;46.20
76156;BME280;64906;51.290;7.348;2023-06-22T06:01:40;98880.34;;;26.37;45.96
76156;BME280;64906;51.290;7.348;2023-06-22T06:04:06;98873.66;;;26.38;46.22
76156;BME280;64906;51.290;7.348;2023-06-22T06:06:33;98870.56;;;26.40;46.46
76156;BME280;64906;51.290;7.348;2023-06-22T06:09:03;98874.97;;;26.41;46.53
76156;BME280;64906;51.290;7.348;2023-06-22T06:11:28;98864.06;;;26.36;46.56
76156;BME280;64906;51.290;7.348;2023-06-22T06:13:53;98868.13;;;26.38;46.73
76156;BME280;64906;51.290;7.348;2023-06-22T06:16:19;98862.56;;;26.38;46.75
76156;BME280;64906;51.290;7.348;2023-06-22T06:18:45;98861.78;;;26.38;47.09
76156;BME280;64906;51.290;7.348;2023-06-22T06:21:10;98870.25;;;26.41;46.99
76156;BME280;64906;51.290;7.348;2023-06-22T06:23:35;98866.31;;;26.42;47.25
76156;BME280;64906;51.290;7.348;2023-06-22T06:26:01;98862.22;;;26.48;47.20
76156;BME280;64906;51.290;7.348;2023-06-22T06:28:26;98856.69;;;26.48;47.15
76156;BME280;64906;51.290;7.348;2023-06-22T06:30:52;98854.06;;;26.52;47.17
76156;BME280;64906;51.290;7.348;2023-06-22T06:33:17;98856.84;;;26.52;47.23
76156;BME280;64906;51.290;7.348;2023-06-22T06:35:43;98862.88;;;26.54;47.13
76156;BME280;64906;51.290;7.348;2023-06-22T06:38:08;98860.78;;;26.51;47.55
76156;BME280;64906;51.290;7.348;2023-06-22T06:40:33;98862.22;;;26.48;47.51
76156;BME280;64906;51.290;7.348;2023-06-22T06:42:58;98863.88;;;26.50;47.47
76156;BME280;64906;51.290;7.348;2023-06-22T06:45:24;98860.13;;;26.45;47.53
76156;BME280;64906;51.290;7.348;2023-06-22T06:47:51;98856.56;;;26.45;47.65
76156;BME280;64906;51.290;7.348;2023-06-22T06:50:17;98860.13;;;26.45;47.85
76156;BME280;64906;51.290;7.348;2023-06-22T06:52:43;98854.91;;;26.44;47.83
76156;BME280;64906;51.290;7.348;2023-06-22T06:55:08;98859.16;;;26.41;48.03
76156;BME280;64906;51.290;7.348;2023-06-22T06:57:37;98856.22;;;26.47;47.78
76156;BME280;64906;51.290;7.348;2023-06-22T07:00:07;98859.63;;;26.43;48.14
76156;BME280;64906;51.290;7.348;2023-06-22T07:02:38;98846.63;;;26.44;47.87
76156;BME280;64906;51.290;7.348;2023-06-22T07:05:04;98857.88;;;26.39;48.00
76156;BME280;64906;51.290;7.348;2023-06-22T07:07:30;98853.31;;;26.43;48.10
76156;BME280;64906;51.290;7.348;2023-06-22T07:09:55;98856.06;;;26.43;47.86
76156;BME280;64906;51.290;7.348;2023-06-22T07:12:21;98854.09;;;26.43;47.85
76156;BME280;64906;51.290;7.348;2023-06-22T07:14:46;98853.31;;;26.43;47.76
76156;BME280;64906;51.290;7.348;2023-06-22T07:17:11;98846.63;;;26.44;47.63
76156;BME280;64906;51.290;7.348;2023-06-22T07:19:37;98837.81;;;26.42;47.67
76156;BME280;64906;51.290;7.348;2023-06-22T07:22:02;98830.00;;;26.44;47.45
76156;BME280;64906;51.290;7.348;2023-06-22T07:24:28;98832.28;;;26.42;47.68
76156;BME280;64906;51.290;7.348;2023-06-22T07:26:53;98839.94;;;26.45;47.71
76156;BME280;64906;51.290;7.348;2023-06-22T07:29:19;98838.31;;;26.44;47.84
76156;BME280;64906;51.290;7.348;2023-06-22T07:31:47;98838.97;;;26.41;47.90
76156;BME280;64906;51.290;7.348;2023-06-22T07:34:13;98839.47;;;26.43;47.85
76156;BME280;64906;51.290;7.348;2023-06-22T07:36:38;98834.91;;;26.38;48.20
76156;BME280;64906;51.290;7.348;2023-06-22T07:39:04;98834.09;;;26.38;48.15
76156;BME280;64906;51.290;7.348;2023-06-22T07:41:30;98824.66;;;26.39;48.13
76156;BME280;64906;51.290;7.348;2023-06-22T07:43:55;98822.38;;;26.41;48.03
76156;BME280;64906;51.290;7.348;2023-06-22T07:46:21;98823.34;;;26.45;48.26
76156;BME280;64906;51.290;7.348;2023-06-22T07:48:46;98816.97;;;26.44;48.30
76156;BME280;64906;51.290;7.348;2023-06-22T07:51:11;98823.19;;;26.41;48.57
76156;BME280;64906;51.290;7.348;2023-06-22T07:53:43;98818.44;;;26.42;48.72
76156;BME280;64906;51.290;7.348;2023-06-22T07:56:12;98824.81;;;26.42;48.79
76156;BME280;64906;51.290;7.348;2023-06-22T07:58:38;98820.88;;;26.43;48.69
76156;BME280;64906;51.290;7.348;2023-06-22T08:01:03;98817.59;;;26.50;48.83
76156;BME280;64906;51.290;7.348;2023-06-22T08:03:29;98810.13;;;26.51;48.82
76156;BME280;64906;51.290;7.348;2023-06-22T08:05:54;98802.94;;;26.58;48.79
76156;BME280;64906;51.290;7.348;2023-06-22T08:08:20;98799.50;;;26.61;48.58
76156;BME280;64906;51.290;7.348;2023-06-22T08:10:45;98791.50;;;26.68;49.24
76156;BME280;64906;51.290;7.348;2023-06-22T08:13:11;98791.63;;;26.72;49.75
76156;BME280;64906;51.290;7.348;2023-06-22T08:15:36;98787.25;;;26.71;50.60
76156;BME280;64906;51.290;7.348;2023-06-22T08:18:01;98790.19;;;26.74;50.52
76156;BME280;64906;51.290;7.348;2023-06-22T08:20:27;98783.78;;;26.82;50.53
76156;BME280;64906;51.290;7.348;2023-06-22T08:22:54;98775.66;;;26.77;50.73
76156;BME280;64906;51.290;7.348;2023-06-22T08:25:19;98770.75;;;26.83;50.70
76156;BME280;64906;51.290;7.348;2023-06-22T08:27:46;98772.69;;;26.82;50.46
76156;BME280;64906;51.290;7.348;2023-06-22T08:30:12;98776.75;;;26.85;50.38
76156;BME280;64906;51.290;7.348;2023-06-22T08:32:38;98774.13;;;26.88;50.25
76156;BME280;64906;51.290;7.348;2023-06-22T08:35:03;98776.34;;;26.95;50.31
76156;BME280;64906;51.290;7.348;2023-06-22T08:37:30;98770.63;;;27.00;49.91
76156;BME280;64906;51.290;7.348;2023-06-22T08:39:58;98774.88;;;26.97;49.70
76156;BME280;64906;51.290;7.348;2023-06-22T08:42:24;98771.09;;;27.02;49.73
76156;BME280;64906;51.290;7.348;2023-06-22T08:44:51;98760.34;;;27.00;49.78
76156;BME280;64906;51.290;7.348;2023-06-22T08:47:16;98756.44;;;27.01;49.78
76156;BME280;64906;51.290;7.348;2023-06-22T08:49:42;98749.06;;;27.05;49.42
76156;BME280;64906;51.290;7.348;2023-06-22T08:52:07;98743.06;;;27.03;49.81
76156;BME280;64906;51.290;7.348;2023-06-22T08:54:33;98749.75;;;27.02;49.54
76156;BME280;64906;51.290;7.348;2023-06-22T08:57:00;98739.25;;;27.08;49.66
76156;BME280;64906;51.290;7.348;2023-06-22T08:59:25;98741.91;;;27.04;49.83
76156;BME280;64906;51.290;7.348;2023-06-22T09:01:50;98731.97;;;27.03;49.48
76156;BME280;64906;51.290;7.348;2023-06-22T09:04:16;98730.81;;;27.04;49.91
76156;BME280;64906;51.290;7.348;2023-06-22T09:06:41;98742.56;;;27.01;49.75
76156;BME280;64906;51.290;7.348;2023-06-22T09:09:12;98730.13;;;27.07;49.47
76156;BME280;64906;51.290;7.348;2023-06-22T09:11:38;98732.25;;;27.10;49.19
76156;BME280;64906;51.290;7.348;2023-06-22T09:14:03;98726.63;;;27.19;49.39
76156;BME280;64906;51.290;7.348;2023-06-22T09:16:29;98720.22;;;27.06;49.32
76156;BME280;64906;51.290;7.348;2023-06-22T09:18:54;98713.78;;;27.14;49.03
76156;BME280;64906;51.290;7.348;2023-06-22T09:21:20;98716.00;;;27.21;49.13
76156;BME280;64906;51.290;7.348;2023-06-22T09:23:45;98716.84;;;27.21;48.85
76156;BME280;64906;51.290;7.348;2023-06-22T09:26:15;98717.19;;;27.20;49.17
76156;BME280;64906;51.290;7.348;2023-06-22T09:28:40;98708.25;;;27.14;49.21
76156;BME280;64906;51.290;7.348;2023-06-22T09:31:05;98706.09;;;27.20;49.09
76156;BME280;64906;51.290;7.348;2023-06-22T09:33:31;98692.38;;;27.23;48.83
76156;BME280;64906;51.290;7.348;2023-06-22T09:35:57;98675.56;;;27.28;48.39
76156;BME280;64906;51.290;7.348;2023-06-22T09:38:22;98671.16;;;27.27;48.39
76156;BME280;64906;51.290;7.348;2023-06-22T09:40:48;98664.13;;;27.30;48.28
76156;BME280;64906;51.290;7.348;2023-06-22T09:43:13;98672.59;;;27.33;47.89
76156;BME280;64906;51.290;7.348;2023-06-22T09:45:38;98670.88;;;27.41;47.93
76156;BME280;64906;51.290;7.348;2023-06-22T09:48:04;98670.03;;;27.40;47.82
76156;BME280;64906;51.290;7.348;2023-06-22T09:50:29;98675.47;;;27.37;48.55
76156;BME280;64906;51.290;7.348;2023-06-22T09:52:54;98664.50;;;27.40;48.29
76156;BME280;64906;51.290;7.348;2023-06-22T09:55:21;98667.88;;;27.46;47.81
76156;BME280;64906;51.290;7.348;2023-06-22T09:57:46;98679.56;;;27.51;47.39
76156;BME280;64906;51.290;7.348;2023-06-22T10:00:12;98681.88;;;27.49;47.56
76156;BME280;64906;51.290;7.348;2023-06-22T10:02:39;98676.78;;;27.51;47.09
76156;BME280;64906;51.290;7.348;2023-06-22T10:05:05;98674.13;;;27.55;47.18
76156;BME280;64906;51.290;7.348;2023-06-22T10:07:30;98671.97;;;27.60;46.69
76156;BME280;64906;51.290;7.348;2023-06-22T10:09:55;98670.81;;;27.61;46.81
76156;BME280;64906;51.290;7.348;2023-06-22T10:12:20;98664.13;;;27.62;46.71
76156;BME280;64906;51.290;7.348;2023-06-22T10:14:46;98670.59;;;27.66;46.25
76156;BME280;64906;51.290;7.348;2023-06-22T10:17:11;98657.19;;;27.68;46.29
76156;BME280;64906;51.290;7.348;2023-06-22T10:19:37;98663.56;;;27.69;46.20
76156;BME280;64906;51.290;7.348;2023-06-22T10:22:04;98659.75;;;27.73;46.15
76156;BME280;64906;51.290;7.348;2023-06-22T10:24:30;98665.31;;;27.73;46.31
76156;BME280;64906;51.290;7.348;2023-06-22T10:26:55;98664.03;;;27.71;46.22
76156;BME280;64906;51.290;7.348;2023-06-22T10:29:20;98662.41;;;27.70;46.25
76156;BME280;64906;51.290;7.348;2023-06-22T10:31:46;98656.84;;;27.70;46.19
76156;BME280;64906;51.290;7.348;2023-06-22T10:34:11;98650.03;;;27.67;45.95
76156;BME280;64906;51.290;7.348;2023-06-22T10:36:37;98650.03;;;27.67;46.12
76156;BME280;64906;51.290;7.348;2023-06-22T10:39:02;98656.50;;;27.71;45.83
76156;BME280;64906;51.290;7.348;2023-06-22T10:41:28;98659.97;;;27.68;45.85
76156;BME280;64906;51.290;7.348;2023-06-22T10:43:55;98633.41;;;27.67;45.81
76156;BME280;64906;51.290;7.348;2023-06-22T10:46:20;98656.94;;;27.61;46.21
76156;BME280;64906;51.290;7.348;2023-06-22T10:48:46;98659.63;;;27.58;46.16
76156;BME280;64906;51.290;7.348;2023-06-22T10:51:11;98673.69;;;27.53;46.29
76156;BME280;64906;51.290;7.348;2023-06-22T10:53:36;98677.03;;;27.46;46.36
76156;BME280;64906;51.290;7.348;2023-06-22T10:56:02;98693.38;;;27.39;46.36
76156;BME280;64906;51.290;7.348;2023-06-22T10:58:27;98702.28;;;27.45;46.22
76156;BME280;64906;51.290;7.348;2023-06-22T11:00:52;98707.72;;;27.41;46.46
76156;BME280;64906;51.290;7.348;2023-06-22T11:03:18;98716.25;;;27.36;46.75
76156;BME280;64906;51.290;7.348;2023-06-22T11:05:43;98719.47;;;27.38;46.88
76156;BME280;64906;51.290;7.348;2023-06-22T11:08:08;98724.38;;;27.41;47.21
76156;BME280;64906;51.290;7.348;2023-06-22T11:10:33;98718.00;;;27.41;47.52
76156;BME280;64906;51.290;7.348;2023-06-22T11:12:59;98722.47;;;27.33;48.06
76156;BME280;64906;51.290;7.348;2023-06-22T11:15:25;98719.56;;;27.30;48.38
76156;BME280;64906;51.290;7.348;2023-06-22T11:17:50;98718.28;;;27.27;48.98
76156;BME280;64906;51.290;7.348;2023-06-22T11:20:15;98707.84;;;27.24;49.14
76156;BME280;64906;51.290;7.348;2023-06-22T11:22:41;98703.66;;;27.18;49.96
76156;BME280;64906;51.290;7.348;2023-06-22T11:25:07;98706.44;;;27.18;50.07
76156;BME280;64906;51.290;7.348;2023-06-22T11:27:33;98698.59;;;27.20;50.19
76156;BME280;64906;51.290;7.348;2023-06-22T11:30:00;98699.00;;;27.10;50.85
76156;BME280;64906;51.290;7.348;2023-06-22T11:32:26;98692.63;;;27.10;51.26
76156;BME280;64906;51.290;7.348;2023-06-22T11:34:52;98685.59;;;27.12;51.50
76156;BME280;64906;51.290;7.348;2023-06-22T11:37:18;98680.72;;;27.09;51.78
76156;BME280;64906;51.290;7.348;2023-06-22T11:39:43;98673.09;;;27.06;52.14
76156;BME280;64906;51.290;7.348;2023-06-22T11:42:11;98679.81;;;27.05;52.39
76156;BME280;64906;51.290;7.348;2023-06-22T11:44:36;98689.59;;;27.03;52.73
76156;BME280;64906;51.290;7.348;2023-06-22T11:47:02;98685.22;;;27.02;52.81
76156;BME280;64906;51.290;7.348;2023-06-22T11:49:30;98687.16;;;27.01;53.23
76156;BME280;64906;51.290;7.348;2023-06-22T11:51:56;98696.97;;;26.99;53.16
76156;BME280;64906;51.290;7.348;2023-06-22T11:54:21;98706.75;;;26.96;53.69
76156;BME280;64906;51.290;7.348;2023-06-22T11:56:46;98713.78;;;26.94;53.92
76156;BME280;64906;51.290;7.348;2023-06-22T11:59:12;98714.47;;;26.91;54.08
76156;BME280;64906;51.290;7.348;2023-06-22T12:01:37;98719.53;;;26.89;54.32
76156;BME280;64906;51.290;7.348;2023-06-22T12:04:02;98723.78;;;26.86;54.75
76156;BME280;64906;51.290;7.348;2023-06-22T12:06:33;98718.72;;;26.88;54.28
76156;BME280;64906;51.290;7.348;2023-06-22T12:09:03;98694.47;;;26.85;54.88
76156;BME280;64906;51.290;7.348;2023-06-22T12:11:29;98679.00;;;26.84;55.09
76156;BME280;64906;51.290;7.348;2023-06-22T12:13:54;98669.03;;;26.83;55.40
76156;BME280;64906;51.290;7.348;2023-06-22T12:16:20;98657.97;;;26.83;55.17
76156;BME280;64906;51.290;7.348;2023-06-22T12:18:47;98647.22;;;26.82;55.23
76156;BME280;64906;51.290;7.348;2023-06-22T12:21:12;98620.06;;;26.75;55.52
76156;BME280;64906;51.290;7.348;2023-06-22T12:23:37;98580.13;;;26.76;55.81
76156;BME280;64906;51.290;7.348;2023-06-22T12:26:03;98557.19;;;26.76;55.92
76156;BME280;64906;51.290;7.348;2023-06-22T12:28:28;98536.50;;;26.73;56.01
76156;BME280;64906;51.290;7.348;2023-06-22T12:30:53;98557.47;;;26.83;56.03
76156;BME280;64906;51.290;7.348;2023-06-22T12:33:18;98572.09;;;26.83;56.25
76156;BME280;64906;51.290;7.348;2023-06-22T12:35:44;98586.78;;;26.84;56.26
76156;BME280;64906;51.290;7.348;2023-06-22T12:38:10;98594.06;;;26.88;56.09
76156;BME280;64906;51.290;7.348;2023-06-22T12:40:36;98595.16;;;26.96;55.76
76156;BME280;64906;51.290;7.348;2023-06-22T12:43:01;98589.72;;;26.99;55.79
76156;BME280;64906;51.290;7.348;2023-06-22T12:45:27;98588.22;;;27.02;55.81
76156;BME280;64906;51.290;7.348;2023-06-22T12:47:54;98586.72;;;27.04;55.62
76156;BME280;64906;51.290;7.348;2023-06-22T12:50:19;98580.28;;;27.12;55.79
76156;BME280;64906;51.290;7.348;2023-06-22T12:52:45;98578.81;;;27.15;55.51
76156;BME280;64906;51.290;7.348;2023-06-22T12:55:10;98571.06;;;27.08;55.98
76156;BME280;64906;51.290;7.348;2023-06-22T12:57:36;98574.16;;;27.07;56.05
76156;BME280;64906;51.290;7.348;2023-06-22T13:00:01;98570.91;;;27.05;56.50